Cookeville, TN

5:54 AM CST on March 01, 2015 (GMT -0600)
Forrest Cove Ln and Forrest Rd | Change Station
CLOSE
Current Station
Personal Weather Station
Location: Cookeville, TN
Elevation: 1079 ft
Nearby Weather Stations

Elev 1079 ft 36.20 °N, 85.52 °W | Updated 1 minute ago

Partly Cloudy
Partly Cloudy
43.5 °F
Feels Like 41 °F
N
4.0
Wind Variable Wind from NE
Gusts 8.0 mph

Today
High -- | Low -- °F
--% Chance of Precip.
Yesterday
High -- | Low -- °F
Precip. -- in
6:12 AM 5:36 PM
Waxing Gibbous, 84% visible
Pressure 30.38 in
Visibility 10.0 miles
Clouds Few 2800 ft
Mostly Cloudy 3400 ft
Windchill 41 °F
Dew Point 37 °F
Humidity 73%
Rainfall 0.00 in
Snow Depth Not available.
UV 0 out of 12
Pollen 3.60 out of 12
Air Quality Not available.
Flu Activity Not available.
METAR KSRB 011135Z AUTO 17007KT 10SM FEW028 BKN034 06/02 A3038 RMK

More Conditions Fewer Conditions

Pressure 30.38 in
Visibility 10.0 miles
Clouds Few 2800 ft
Mostly Cloudy 3400 ft
Windchill 41 °F
Dew Point 37 °F
Humidity 73%
Rainfall 0.00 in
Snow Depth Not available.
UV 0 out of 12
Pollen 3.60 out of 12
Air Quality Not available.
Flu Activity Not available.
METAR KSRB 011135Z AUTO 17007KT 10SM FEW028 BKN034 06/02 A3038 RMK

More Conditions Fewer Conditions

10-Day Weather Forecast

Almanac

Astronomy

Mar. 01, 2015 Rise Set
Actual Time
Civil Twilight
Nautical Twilight
Astronomical Twilight
Moon
Length of Visible Light
Length of Day
Tomorrow will be .
, % of the Moon is Illuminated

Today's Extremes

State Highs State Lows

Community

WunderPhotos

Upload Photos

1,801,365 photos uploaded!

WunderBlogs® & News

Nearby

Air Quality

  Air Quality AQ Index Pollutant
Not available.

Snow Depth

Station Depth Elevation

Earthquake Activity

City Distance Mag. Time & Date
Minimum magnitude displayed is 2.5.

Coastal Water Temperatures

Place Temperature

Nearby Weather Stations